sensor_id;sensor_type;location;lat;lon;timestamp;P1;durP1;ratioP1;P2;durP2;ratioP2
40204;SDS011;26963;42.666;23.366;2023-07-31T00:00:27;4.93;;;3.35;;
40204;SDS011;26963;42.666;23.366;2023-07-31T00:02:53;3.75;;;2.92;;
40204;SDS011;26963;42.666;23.366;2023-07-31T00:05:19;3.22;;;2.78;;
40204;SDS011;26963;42.666;23.366;2023-07-31T00:07:45;3.28;;;2.75;;
40204;SDS011;26963;42.666;23.366;2023-07-31T00:10:10;4.03;;;2.78;;
40204;SDS011;26963;42.666;23.366;2023-07-31T00:12:37;3.90;;;2.72;;
40204;SDS011;26963;42.666;23.366;2023-07-31T00:15:03;3.50;;;2.97;;
40204;SDS011;26963;42.666;23.366;2023-07-31T00:17:29;3.92;;;2.90;;
40204;SDS011;26963;42.666;23.366;2023-07-31T00:19:55;3.78;;;2.72;;
40204;SDS011;26963;42.666;23.366;2023-07-31T00:22:21;3.75;;;2.72;;
40204;SDS011;26963;42.666;23.366;2023-07-31T00:24:47;4.38;;;2.80;;
40204;SDS011;26963;42.666;23.366;2023-07-31T00:27:12;5.32;;;3.08;;
40204;SDS011;26963;42.666;23.366;2023-07-31T00:29:38;3.72;;;2.80;;
40204;SDS011;26963;42.666;23.366;2023-07-31T00:32:04;3.33;;;2.70;;
40204;SDS011;26963;42.666;23.366;2023-07-31T00:34:29;4.55;;;3.00;;
40204;SDS011;26963;42.666;23.366;2023-07-31T00:36:55;4.28;;;3.20;;
40204;SDS011;26963;42.666;23.366;2023-07-31T00:39:20;3.90;;;2.90;;
40204;SDS011;26963;42.666;23.366;2023-07-31T00:41:46;4.50;;;3.20;;
40204;SDS011;26963;42.666;23.366;2023-07-31T00:44:11;3.83;;;3.30;;
40204;SDS011;26963;42.666;23.366;2023-07-31T00:46:37;4.38;;;3.33;;
40204;SDS011;26963;42.666;23.366;2023-07-31T00:49:03;4.40;;;3.42;;
40204;SDS011;26963;42.666;23.366;2023-07-31T00:51:30;5.07;;;3.35;;
40204;SDS011;26963;42.666;23.366;2023-07-31T00:53:55;4.40;;;3.30;;
40204;SDS011;26963;42.666;23.366;2023-07-31T00:56:21;4.88;;;3.40;;
40204;SDS011;26963;42.666;23.366;2023-07-31T00:58:48;4.85;;;4.05;;
40204;SDS011;26963;42.666;23.366;2023-07-31T01:01:14;7.65;;;4.50;;
40204;SDS011;26963;42.666;23.366;2023-07-31T01:03:39;4.90;;;4.40;;
40204;SDS011;26963;42.666;23.366;2023-07-31T01:06:15;5.18;;;4.68;;
40204;SDS011;26963;42.666;23.366;2023-07-31T01:11:19;7.40;;;5.57;;
40204;SDS011;26963;42.666;23.366;2023-07-31T01:13:52;6.18;;;5.57;;
40204;SDS011;26963;42.666;23.366;2023-07-31T01:16:19;5.80;;;5.20;;
40204;SDS011;26963;42.666;23.366;2023-07-31T01:18:44;6.18;;;5.57;;
40204;SDS011;26963;42.666;23.366;2023-07-31T01:24:25;8.25;;;6.80;;
40204;SDS011;26963;42.666;23.366;2023-07-31T01:26:55;8.27;;;6.90;;
40204;SDS011;26963;42.666;23.366;2023-07-31T01:29:26;7.60;;;6.88;;
40204;SDS011;26963;42.666;23.366;2023-07-31T01:32:01;8.38;;;7.68;;
40204;SDS011;26963;42.666;23.366;2023-07-31T01:34:29;9.00;;;8.20;;
40204;SDS011;26963;42.666;23.366;2023-07-31T01:36:56;8.85;;;7.80;;
40204;SDS011;26963;42.666;23.366;2023-07-31T01:39:23;9.70;;;8.70;;
40204;SDS011;26963;42.666;23.366;2023-07-31T01:41:49;9.38;;;8.48;;
40204;SDS011;26963;42.666;23.366;2023-07-31T01:44:14;10.20;;;9.20;;
40204;SDS011;26963;42.666;23.366;2023-07-31T01:46:40;11.30;;;10.25;;
40204;SDS011;26963;42.666;23.366;2023-07-31T01:49:05;12.02;;;10.93;;
40204;SDS011;26963;42.666;23.366;2023-07-31T01:51:31;11.70;;;10.70;;
40204;SDS011;26963;42.666;23.366;2023-07-31T01:53:59;14.00;;;12.80;;
40204;SDS011;26963;42.666;23.366;2023-07-31T01:56:25;14.32;;;12.93;;
40204;SDS011;26963;42.666;23.366;2023-07-31T01:58:51;13.40;;;12.20;;
40204;SDS011;26963;42.666;23.366;2023-07-31T02:01:16;14.63;;;13.43;;
40204;SDS011;26963;42.666;23.366;2023-07-31T02:03:42;15.18;;;13.70;;
40204;SDS011;26963;42.666;23.366;2023-07-31T02:06:07;15.55;;;14.25;;
40204;SDS011;26963;42.666;23.366;2023-07-31T02:08:33;16.60;;;15.10;;
40204;SDS011;26963;42.666;23.366;2023-07-31T02:10:58;16.40;;;14.68;;
40204;SDS011;26963;42.666;23.366;2023-07-31T02:13:24;16.63;;;15.18;;
40204;SDS011;26963;42.666;23.366;2023-07-31T02:15:49;16.85;;;15.38;;
40204;SDS011;26963;42.666;23.366;2023-07-31T02:18:16;17.23;;;15.73;;
40204;SDS011;26963;42.666;23.366;2023-07-31T02:20:41;17.55;;;15.95;;
40204;SDS011;26963;42.666;23.366;2023-07-31T02:23:08;17.52;;;16.02;;
40204;SDS011;26963;42.666;23.366;2023-07-31T02:25:33;17.30;;;15.80;;
40204;SDS011;26963;42.666;23.366;2023-07-31T02:27:59;18.23;;;16.55;;
40204;SDS011;26963;42.666;23.366;2023-07-31T02:30:25;19.70;;;17.90;;
40204;SDS011;26963;42.666;23.366;2023-07-31T02:32:50;17.80;;;16.33;;
40204;SDS011;26963;42.666;23.366;2023-07-31T02:35:16;18.00;;;16.40;;
40204;SDS011;26963;42.666;23.366;2023-07-31T02:37:42;17.95;;;16.45;;
40204;SDS011;26963;42.666;23.366;2023-07-31T02:40:07;17.98;;;16.48;;
40204;SDS011;26963;42.666;23.366;2023-07-31T02:42:33;17.80;;;16.20;;
40204;SDS011;26963;42.666;23.366;2023-07-31T02:44:59;18.67;;;17.05;;
40204;SDS011;26963;42.666;23.366;2023-07-31T02:47:24;18.35;;;16.75;;
40204;SDS011;26963;42.666;23.366;2023-07-31T02:49:50;18.48;;;16.88;;
40204;SDS011;26963;42.666;23.366;2023-07-31T02:52:15;18.52;;;16.88;;
40204;SDS011;26963;42.666;23.366;2023-07-31T02:54:41;18.05;;;16.45;;
40204;SDS011;26963;42.666;23.366;2023-07-31T02:57:06;18.77;;;17.13;;
40204;SDS011;26963;42.666;23.366;2023-07-31T02:59:32;18.38;;;16.77;;
40204;SDS011;26963;42.666;23.366;2023-07-31T03:01:57;18.70;;;17.15;;
40204;SDS011;26963;42.666;23.366;2023-07-31T03:04:23;17.80;;;16.30;;
40204;SDS011;26963;42.666;23.366;2023-07-31T03:06:49;18.88;;;17.17;;
40204;SDS011;26963;42.666;23.366;2023-07-31T03:09:14;18.55;;;16.95;;
40204;SDS011;26963;42.666;23.366;2023-07-31T03:11:40;18.27;;;16.67;;
40204;SDS011;26963;42.666;23.366;2023-07-31T03:14:05;19.42;;;17.83;;
40204;SDS011;26963;42.666;23.366;2023-07-31T03:16:31;19.20;;;17.50;;
40204;SDS011;26963;42.666;23.366;2023-07-31T03:18:56;18.50;;;16.80;;
40204;SDS011;26963;42.666;23.366;2023-07-31T03:21:22;19.40;;;17.70;;
40204;SDS011;26963;42.666;23.366;2023-07-31T03:23:48;18.40;;;16.80;;
40204;SDS011;26963;42.666;23.366;2023-07-31T03:26:13;20.35;;;18.65;;
40204;SDS011;26963;42.666;23.366;2023-07-31T03:28:39;19.00;;;17.30;;
40204;SDS011;26963;42.666;23.366;2023-07-31T03:31:05;18.92;;;17.13;;
40204;SDS011;26963;42.666;23.366;2023-07-31T03:33:30;18.80;;;17.20;;
40204;SDS011;26963;42.666;23.366;2023-07-31T03:35:56;19.00;;;17.25;;
40204;SDS011;26963;42.666;23.366;2023-07-31T03:38:22;21.00;;;19.10;;
40204;SDS011;26963;42.666;23.366;2023-07-31T03:40:47;19.23;;;17.55;;
40204;SDS011;26963;42.666;23.366;2023-07-31T03:43:13;20.77;;;19.00;;
40204;SDS011;26963;42.666;23.366;2023-07-31T03:45:39;19.98;;;18.15;;
40204;SDS011;26963;42.666;23.366;2023-07-31T03:48:04;19.50;;;17.80;;
40204;SDS011;26963;42.666;23.366;2023-07-31T03:50:30;20.65;;;18.85;;
40204;SDS011;26963;42.666;23.366;2023-07-31T03:52:56;21.38;;;19.48;;
40204;SDS011;26963;42.666;23.366;2023-07-31T03:55:21;21.55;;;19.52;;
40204;SDS011;26963;42.666;23.366;2023-07-31T03:57:47;20.88;;;18.98;;
40204;SDS011;26963;42.666;23.366;2023-07-31T04:00:13;20.55;;;18.65;;
40204;SDS011;26963;42.666;23.366;2023-07-31T04:02:38;24.23;;;22.02;;
40204;SDS011;26963;42.666;23.366;2023-07-31T04:05:04;21.95;;;19.90;;
40204;SDS011;26963;42.666;23.366;2023-07-31T04:07:30;21.45;;;19.40;;
40204;SDS011;26963;42.666;23.366;2023-07-31T04:09:56;22.35;;;20.25;;
40204;SDS011;26963;42.666;23.366;2023-07-31T04:12:22;22.88;;;20.77;;
40204;SDS011;26963;42.666;23.366;2023-07-31T04:14:47;95.93;;;26.85;;
40204;SDS011;26963;42.666;23.366;2023-07-31T04:17:13;27.85;;;21.08;;
40204;SDS011;26963;42.666;23.366;2023-07-31T04:19:38;22.75;;;20.50;;
40204;SDS011;26963;42.666;23.366;2023-07-31T04:22:05;23.67;;;21.48;;
40204;SDS011;26963;42.666;23.366;2023-07-31T04:24:30;23.17;;;20.77;;
40204;SDS011;26963;42.666;23.366;2023-07-31T04:26:56;26.90;;;24.17;;
40204;SDS011;26963;42.666;23.366;2023-07-31T04:29:21;35.03;;;20.98;;
40204;SDS011;26963;42.666;23.366;2023-07-31T04:31:48;23.00;;;20.73;;
40204;SDS011;26963;42.666;23.366;2023-07-31T04:34:13;24.58;;;22.17;;
40204;SDS011;26963;42.666;23.366;2023-07-31T04:36:39;23.90;;;21.60;;
40204;SDS011;26963;42.666;23.366;2023-07-31T04:39:04;26.00;;;23.38;;
40204;SDS011;26963;42.666;23.366;2023-07-31T04:41:30;24.48;;;22.13;;
40204;SDS011;26963;42.666;23.366;2023-07-31T04:43:56;23.70;;;21.23;;
40204;SDS011;26963;42.666;23.366;2023-07-31T04:46:21;22.23;;;20.20;;
40204;SDS011;26963;42.666;23.366;2023-07-31T04:48:47;24.52;;;21.92;;
40204;SDS011;26963;42.666;23.366;2023-07-31T04:51:12;23.42;;;21.25;;
40204;SDS011;26963;42.666;23.366;2023-07-31T04:53:38;23.83;;;21.48;;
40204;SDS011;26963;42.666;23.366;2023-07-31T04:56:04;23.60;;;21.27;;
40204;SDS011;26963;42.666;23.366;2023-07-31T04:58:29;24.98;;;22.27;;
40204;SDS011;26963;42.666;23.366;2023-07-31T05:00:55;23.13;;;20.95;;
40204;SDS011;26963;42.666;23.366;2023-07-31T05:03:20;22.75;;;20.67;;
40204;SDS011;26963;42.666;23.366;2023-07-31T05:05:46;22.40;;;20.38;;
40204;SDS011;26963;42.666;23.366;2023-07-31T05:08:11;22.63;;;20.63;;
40204;SDS011;26963;42.666;23.366;2023-07-31T05:10:37;22.02;;;19.92;;
40204;SDS011;26963;42.666;23.366;2023-07-31T05:13:03;21.08;;;19.08;;
40204;SDS011;26963;42.666;23.366;2023-07-31T05:15:28;21.35;;;19.35;;
40204;SDS011;26963;42.666;23.366;2023-07-31T05:17:54;22.77;;;20.45;;
40204;SDS011;26963;42.666;23.366;2023-07-31T05:20:20;21.75;;;19.52;;
40204;SDS011;26963;42.666;23.366;2023-07-31T05:22:45;21.52;;;19.52;;
40204;SDS011;26963;42.666;23.366;2023-07-31T05:25:11;19.73;;;17.92;;
40204;SDS011;26963;42.666;23.366;2023-07-31T05:27:36;18.85;;;17.15;;
40204;SDS011;26963;42.666;23.366;2023-07-31T05:30:02;16.77;;;15.18;;
40204;SDS011;26963;42.666;23.366;2023-07-31T05:32:28;16.50;;;15.10;;
40204;SDS011;26963;42.666;23.366;2023-07-31T05:34:54;16.73;;;15.25;;
40204;SDS011;26963;42.666;23.366;2023-07-31T05:37:19;15.32;;;13.90;;
40204;SDS011;26963;42.666;23.366;2023-07-31T05:39:45;14.52;;;13.02;;
40204;SDS011;26963;42.666;23.366;2023-07-31T05:42:10;15.05;;;13.55;;
40204;SDS011;26963;42.666;23.366;2023-07-31T05:44:36;14.23;;;13.02;;
40204;SDS011;26963;42.666;23.366;2023-07-31T05:47:01;14.20;;;12.85;;
40204;SDS011;26963;42.666;23.366;2023-07-31T05:49:27;15.60;;;13.95;;
40204;SDS011;26963;42.666;23.366;2023-07-31T05:51:53;16.85;;;15.07;;
40204;SDS011;26963;42.666;23.366;2023-07-31T05:54:18;13.27;;;11.88;;
40204;SDS011;26963;42.666;23.366;2023-07-31T05:56:44;12.18;;;10.98;;
40204;SDS011;26963;42.666;23.366;2023-07-31T05:59:11;11.55;;;10.45;;
40204;SDS011;26963;42.666;23.366;2023-07-31T06:01:37;13.43;;;10.70;;
40204;SDS011;26963;42.666;23.366;2023-07-31T06:04:03;11.45;;;10.18;;
40204;SDS011;26963;42.666;23.366;2023-07-31T06:06:29;10.65;;;9.52;;
40204;SDS011;26963;42.666;23.366;2023-07-31T06:08:54;10.98;;;9.82;;
40204;SDS011;26963;42.666;23.366;2023-07-31T06:11:20;10.57;;;9.57;;
40204;SDS011;26963;42.666;23.366;2023-07-31T06:13:46;11.05;;;9.73;;
40204;SDS011;26963;42.666;23.366;2023-07-31T06:16:14;10.73;;;9.65;;
40204;SDS011;26963;42.666;23.366;2023-07-31T06:18:40;9.15;;;8.25;;
40204;SDS011;26963;42.666;23.366;2023-07-31T06:21:06;8.43;;;7.63;;
40204;SDS011;26963;42.666;23.366;2023-07-31T06:23:33;8.40;;;7.15;;
40204;SDS011;26963;42.666;23.366;2023-07-31T06:25:59;8.52;;;7.72;;
40204;SDS011;26963;42.666;23.366;2023-07-31T06:28:28;8.25;;;6.53;;
40204;SDS011;26963;42.666;23.366;2023-07-31T06:30:54;8.57;;;5.68;;
40204;SDS011;26963;42.666;23.366;2023-07-31T06:33:20;9.35;;;8.45;;
40204;SDS011;26963;42.666;23.366;2023-07-31T06:35:45;8.60;;;6.97;;
40204;SDS011;26963;42.666;23.366;2023-07-31T06:38:11;6.47;;;5.53;;
40204;SDS011;26963;42.666;23.366;2023-07-31T06:40:36;9.55;;;6.70;;
40204;SDS011;26963;42.666;23.366;2023-07-31T06:43:02;8.63;;;7.72;;
40204;SDS011;26963;42.666;23.366;2023-07-31T06:45:36;7.72;;;6.78;;
40204;SDS011;26963;42.666;23.366;2023-07-31T06:48:02;8.10;;;7.10;;
40204;SDS011;26963;42.666;23.366;2023-07-31T06:50:29;10.27;;;8.38;;
40204;SDS011;26963;42.666;23.366;2023-07-31T06:52:55;9.70;;;7.53;;
40204;SDS011;26963;42.666;23.366;2023-07-31T06:55:21;10.43;;;7.25;;
40204;SDS011;26963;42.666;23.366;2023-07-31T06:57:48;6.00;;;5.32;;
40204;SDS011;26963;42.666;23.366;2023-07-31T07:00:14;6.03;;;5.05;;
40204;SDS011;26963;42.666;23.366;2023-07-31T07:02:41;6.35;;;5.72;;
40204;SDS011;26963;42.666;23.366;2023-07-31T07:05:07;7.38;;;4.90;;
40204;SDS011;26963;42.666;23.366;2023-07-31T07:07:33;6.35;;;4.03;;
40204;SDS011;26963;42.666;23.366;2023-07-31T07:09:59;6.18;;;4.15;;
40204;SDS011;26963;42.666;23.366;2023-07-31T07:12:26;4.57;;;3.90;;
40204;SDS011;26963;42.666;23.366;2023-07-31T07:14:54;11.50;;;3.88;;
40204;SDS011;26963;42.666;23.366;2023-07-31T07:17:20;6.28;;;3.97;;
40204;SDS011;26963;42.666;23.366;2023-07-31T07:19:47;6.38;;;4.00;;
40204;SDS011;26963;42.666;23.366;2023-07-31T07:22:13;5.72;;;3.45;;
40204;SDS011;26963;42.666;23.366;2023-07-31T07:24:39;6.85;;;4.90;;
40204;SDS011;26963;42.666;23.366;2023-07-31T07:27:05;6.45;;;4.15;;
40204;SDS011;26963;42.666;23.366;2023-07-31T07:29:31;6.10;;;3.55;;
40204;SDS011;26963;42.666;23.366;2023-07-31T07:31:56;7.15;;;3.30;;
40204;SDS011;26963;42.666;23.366;2023-07-31T07:34:22;4.75;;;3.17;;
40204;SDS011;26963;42.666;23.366;2023-07-31T07:36:49;3.65;;;3.33;;
40204;SDS011;26963;42.666;23.366;2023-07-31T07:39:15;4.38;;;3.28;;
40204;SDS011;26963;42.666;23.366;2023-07-31T07:41:40;4.78;;;3.78;;
40204;SDS011;26963;42.666;23.366;2023-07-31T07:44:06;6.00;;;3.78;;
40204;SDS011;26963;42.666;23.366;2023-07-31T07:46:32;5.57;;;4.82;;
40204;SDS011;26963;42.666;23.366;2023-07-31T07:48:58;5.88;;;3.85;;
40204;SDS011;26963;42.666;23.366;2023-07-31T07:51:23;4.82;;;3.40;;
40204;SDS011;26963;42.666;23.366;2023-07-31T07:53:49;7.43;;;5.75;;
40204;SDS011;26963;42.666;23.366;2023-07-31T07:56:14;4.70;;;4.18;;
40204;SDS011;26963;42.666;23.366;2023-07-31T07:58:40;7.40;;;3.72;;
40204;SDS011;26963;42.666;23.366;2023-07-31T08:01:05;4.97;;;4.00;;
40204;SDS011;26963;42.666;23.366;2023-07-31T08:03:31;4.80;;;4.00;;
40204;SDS011;26963;42.666;23.366;2023-07-31T08:05:59;7.85;;;4.13;;
40204;SDS011;26963;42.666;23.366;2023-07-31T08:08:28;6.63;;;3.42;;
40204;SDS011;26963;42.666;23.366;2023-07-31T08:10:54;7.35;;;3.78;;
40204;SDS011;26963;42.666;23.366;2023-07-31T08:13:19;5.22;;;3.30;;
40204;SDS011;26963;42.666;23.366;2023-07-31T08:15:45;7.22;;;3.30;;
40204;SDS011;26963;42.666;23.366;2023-07-31T08:18:11;9.00;;;3.10;;
40204;SDS011;26963;42.666;23.366;2023-07-31T08:20:37;5.72;;;2.95;;
40204;SDS011;26963;42.666;23.366;2023-07-31T08:23:03;5.97;;;3.05;;
40204;SDS011;26963;42.666;23.366;2023-07-31T08:25:29;3.58;;;2.55;;
40204;SDS011;26963;42.666;23.366;2023-07-31T08:27:54;6.07;;;2.70;;
40204;SDS011;26963;42.666;23.366;2023-07-31T08:30:20;5.93;;;3.15;;
40204;SDS011;26963;42.666;23.366;2023-07-31T08:32:46;7.28;;;2.83;;
40204;SDS011;26963;42.666;23.366;2023-07-31T08:35:12;7.85;;;3.63;;
40204;SDS011;26963;42.666;23.366;2023-07-31T08:37:38;6.82;;;3.17;;
40204;SDS011;26963;42.666;23.366;2023-07-31T08:40:03;5.32;;;3.20;;
40204;SDS011;26963;42.666;23.366;2023-07-31T08:42:30;6.20;;;3.05;;
40204;SDS011;26963;42.666;23.366;2023-07-31T08:44:56;3.97;;;3.15;;
40204;SDS011;26963;42.666;23.366;2023-07-31T08:47:22;7.38;;;5.20;;
40204;SDS011;26963;42.666;23.366;2023-07-31T08:49:49;10.93;;;8.77;;
40204;SDS011;26963;42.666;23.366;2023-07-31T08:52:17;12.48;;;11.25;;
40204;SDS011;26963;42.666;23.366;2023-07-31T08:54:43;5.55;;;4.80;;
40204;SDS011;26963;42.666;23.366;2023-07-31T08:57:08;10.05;;;6.90;;
40204;SDS011;26963;42.666;23.366;2023-07-31T08:59:35;9.02;;;4.95;;
40204;SDS011;26963;42.666;23.366;2023-07-31T09:02:07;5.75;;;5.18;;
40204;SDS011;26963;42.666;23.366;2023-07-31T09:04:33;4.95;;;4.45;;
40204;SDS011;26963;42.666;23.366;2023-07-31T09:07:00;12.88;;;7.82;;
40204;SDS011;26963;42.666;23.366;2023-07-31T09:09:28;6.82;;;5.07;;
40204;SDS011;26963;42.666;23.366;2023-07-31T09:11:54;10.82;;;5.03;;
40204;SDS011;26963;42.666;23.366;2023-07-31T09:14:20;6.07;;;4.93;;
40204;SDS011;26963;42.666;23.366;2023-07-31T09:16:53;9.95;;;7.88;;
40204;SDS011;26963;42.666;23.366;2023-07-31T09:19:32;13.27;;;11.85;;
40204;SDS011;26963;42.666;23.366;2023-07-31T09:22:00;10.73;;;8.90;;
40204;SDS011;26963;42.666;23.366;2023-07-31T09:24:26;8.82;;;7.65;;
40204;SDS011;26963;42.666;23.366;2023-07-31T09:26:56;10.52;;;7.68;;
40204;SDS011;26963;42.666;23.366;2023-07-31T09:29:23;11.90;;;9.32;;
40204;SDS011;26963;42.666;23.366;2023-07-31T09:31:51;12.85;;;7.72;;
40204;SDS011;26963;42.666;23.366;2023-07-31T09:34:18;11.07;;;7.15;;
40204;SDS011;26963;42.666;23.366;2023-07-31T09:36:47;7.90;;;5.05;;
40204;SDS011;26963;42.666;23.366;2023-07-31T09:39:14;10.70;;;6.97;;
40204;SDS011;26963;42.666;23.366;2023-07-31T09:41:44;11.30;;;7.45;;
40204;SDS011;26963;42.666;23.366;2023-07-31T09:44:18;9.32;;;7.57;;
40204;SDS011;26963;42.666;23.366;2023-07-31T09:46:44;13.85;;;12.45;;
40204;SDS011;26963;42.666;23.366;2023-07-31T09:49:10;21.13;;;19.10;;
40204;SDS011;26963;42.666;23.366;2023-07-31T09:51:37;6.45;;;5.63;;
40204;SDS011;26963;42.666;23.366;2023-07-31T09:54:10;4.82;;;4.10;;
40204;SDS011;26963;42.666;23.366;2023-07-31T09:56:48;7.65;;;3.40;;
40204;SDS011;26963;42.666;23.366;2023-07-31T09:59:15;7.05;;;3.90;;
40204;SDS011;26963;42.666;23.366;2023-07-31T10:01:43;6.93;;;3.40;;
40204;SDS011;26963;42.666;23.366;2023-07-31T10:04:11;7.43;;;5.72;;
40204;SDS011;26963;42.666;23.366;2023-07-31T10:06:38;4.93;;;4.20;;
40204;SDS011;26963;42.666;23.366;2023-07-31T10:09:06;5.53;;;3.83;;
40204;SDS011;26963;42.666;23.366;2023-07-31T10:11:37;5.85;;;4.10;;
40204;SDS011;26963;42.666;23.366;2023-07-31T10:14:07;7.07;;;3.17;;
40204;SDS011;26963;42.666;23.366;2023-07-31T10:16:34;4.18;;;3.20;;
40204;SDS011;26963;42.666;23.366;2023-07-31T10:19:00;4.80;;;3.63;;
40204;SDS011;26963;42.666;23.366;2023-07-31T10:21:26;5.32;;;4.10;;
40204;SDS011;26963;42.666;23.366;2023-07-31T10:23:53;4.40;;;3.03;;
40204;SDS011;26963;42.666;23.366;2023-07-31T10:26:20;4.88;;;2.80;;
40204;SDS011;26963;42.666;23.366;2023-07-31T10:28:48;7.20;;;3.35;;
40204;SDS011;26963;42.666;23.366;2023-07-31T10:31:17;4.80;;;3.47;;
40204;SDS011;26963;42.666;23.366;2023-07-31T10:33:44;3.60;;;2.78;;
40204;SDS011;26963;42.666;23.366;2023-07-31T10:36:17;3.88;;;2.95;;
40204;SDS011;26963;42.666;23.366;2023-07-31T10:38:43;4.57;;;2.83;;
40204;SDS011;26963;42.666;23.366;2023-07-31T10:41:09;6.20;;;3.95;;
40204;SDS011;26963;42.666;23.366;2023-07-31T10:43:36;5.10;;;3.30;;
40204;SDS011;26963;42.666;23.366;2023-07-31T10:46:14;3.47;;;2.70;;
40204;SDS011;26963;42.666;23.366;2023-07-31T10:48:40;4.00;;;2.88;;
40204;SDS011;26963;42.666;23.366;2023-07-31T10:51:07;6.25;;;3.53;;
40204;SDS011;26963;42.666;23.366;2023-07-31T10:53:35;4.43;;;3.45;;
40204;SDS011;26963;42.666;23.366;2023-07-31T10:56:05;3.85;;;3.25;;
40204;SDS011;26963;42.666;23.366;2023-07-31T10:58:32;3.10;;;2.55;;
40204;SDS011;26963;42.666;23.366;2023-07-31T11:00:59;3.45;;;2.33;;
40204;SDS011;26963;42.666;23.366;2023-07-31T11:06:13;4.85;;;3.63;;
40204;SDS011;26963;42.666;23.366;2023-07-31T11:08:47;5.13;;;3.67;;
40204;SDS011;26963;42.666;23.366;2023-07-31T11:11:17;3.88;;;3.03;;
40204;SDS011;26963;42.666;23.366;2023-07-31T11:13:45;5.63;;;3.80;;
40204;SDS011;26963;42.666;23.366;2023-07-31T11:16:15;5.73;;;3.40;;
40204;SDS011;26963;42.666;23.366;2023-07-31T11:18:45;4.43;;;3.17;;
40204;SDS011;26963;42.666;23.366;2023-07-31T11:21:14;4.10;;;3.45;;
40204;SDS011;26963;42.666;23.366;2023-07-31T11:23:45;6.00;;;4.00;;
40204;SDS011;26963;42.666;23.366;2023-07-31T11:26:12;3.40;;;2.60;;
40204;SDS011;26963;42.666;23.366;2023-07-31T11:28:38;2.83;;;2.20;;
40204;SDS011;26963;42.666;23.366;2023-07-31T11:31:03;4.80;;;2.20;;
40204;SDS011;26963;42.666;23.366;2023-07-31T11:33:29;2.22;;;2.00;;
40204;SDS011;26963;42.666;23.366;2023-07-31T11:35:56;2.65;;;2.35;;
40204;SDS011;26963;42.666;23.366;2023-07-31T11:38:22;3.45;;;2.47;;
40204;SDS011;26963;42.666;23.366;2023-07-31T11:40:50;3.35;;;2.67;;
40204;SDS011;26963;42.666;23.366;2023-07-31T11:43:17;4.25;;;2.50;;
40204;SDS011;26963;42.666;23.366;2023-07-31T11:45:53;5.97;;;2.38;;
40204;SDS011;26963;42.666;23.366;2023-07-31T11:48:24;4.00;;;2.80;;
40204;SDS011;26963;42.666;23.366;2023-07-31T11:50:57;4.45;;;2.88;;
40204;SDS011;26963;42.666;23.366;2023-07-31T11:53:28;4.20;;;2.60;;
40204;SDS011;26963;42.666;23.366;2023-07-31T11:56:01;6.10;;;2.92;;
40204;SDS011;26963;42.666;23.366;2023-07-31T11:58:30;4.00;;;2.80;;
40204;SDS011;26963;42.666;23.366;2023-07-31T12:00:56;3.08;;;2.78;;
40204;SDS011;26963;42.666;23.366;2023-07-31T12:03:23;5.97;;;4.05;;
40204;SDS011;26963;42.666;23.366;2023-07-31T12:05:49;5.85;;;3.40;;
40204;SDS011;26963;42.666;23.366;2023-07-31T12:08:15;7.15;;;5.10;;
40204;SDS011;26963;42.666;23.366;2023-07-31T12:10:41;5.43;;;3.28;;
40204;SDS011;26963;42.666;23.366;2023-07-31T12:13:10;2.65;;;2.40;;
40204;SDS011;26963;42.666;23.366;2023-07-31T12:15:44;6.13;;;2.70;;
40204;SDS011;26963;42.666;23.366;2023-07-31T12:18:14;5.35;;;3.28;;
40204;SDS011;26963;42.666;23.366;2023-07-31T12:20:48;5.28;;;3.42;;
40204;SDS011;26963;42.666;23.366;2023-07-31T12:28:29;4.90;;;3.78;;
40204;SDS011;26963;42.666;23.366;2023-07-31T12:30:58;4.47;;;3.80;;
40204;SDS011;26963;42.666;23.366;2023-07-31T12:33:30;4.28;;;3.60;;
40204;SDS011;26963;42.666;23.366;2023-07-31T12:35:57;7.70;;;4.15;;
40204;SDS011;26963;42.666;23.366;2023-07-31T12:38:25;5.82;;;4.60;;
40204;SDS011;26963;42.666;23.366;2023-07-31T12:40:51;5.07;;;4.57;;
40204;SDS011;26963;42.666;23.366;2023-07-31T12:43:16;6.28;;;4.97;;
40204;SDS011;26963;42.666;23.366;2023-07-31T12:45:42;6.07;;;4.78;;
40204;SDS011;26963;42.666;23.366;2023-07-31T12:48:08;6.18;;;4.90;;
40204;SDS011;26963;42.666;23.366;2023-07-31T12:50:33;5.00;;;4.50;;
40204;SDS011;26963;42.666;23.366;2023-07-31T12:53:01;7.47;;;5.05;;
40204;SDS011;26963;42.666;23.366;2023-07-31T12:55:28;6.70;;;6.10;;
40204;SDS011;26963;42.666;23.366;2023-07-31T12:57:54;6.18;;;5.30;;
40204;SDS011;26963;42.666;23.366;2023-07-31T13:00:19;7.10;;;5.10;;
40204;SDS011;26963;42.666;23.366;2023-07-31T13:02:45;6.28;;;5.40;;
40204;SDS011;26963;42.666;23.366;2023-07-31T13:05:10;6.00;;;5.40;;
40204;SDS011;26963;42.666;23.366;2023-07-31T13:07:36;5.75;;;5.18;;
40204;SDS011;26963;42.666;23.366;2023-07-31T13:10:02;5.80;;;5.30;;
40204;SDS011;26963;42.666;23.366;2023-07-31T13:12:27;7.10;;;5.53;;
40204;SDS011;26963;42.666;23.366;2023-07-31T13:14:53;6.65;;;5.32;;
40204;SDS011;26963;42.666;23.366;2023-07-31T13:17:18;6.70;;;5.68;;
40204;SDS011;26963;42.666;23.366;2023-07-31T13:19:44;8.27;;;6.30;;
40204;SDS011;26963;42.666;23.366;2023-07-31T13:22:10;8.43;;;5.70;;
40204;SDS011;26963;42.666;23.366;2023-07-31T13:24:36;6.35;;;5.75;;
40204;SDS011;26963;42.666;23.366;2023-07-31T13:27:02;6.88;;;6.10;;
40204;SDS011;26963;42.666;23.366;2023-07-31T13:29:27;6.78;;;6.07;;
40204;SDS011;26963;42.666;23.366;2023-07-31T13:31:55;8.23;;;5.25;;
40204;SDS011;26963;42.666;23.366;2023-07-31T13:34:20;8.20;;;6.13;;
40204;SDS011;26963;42.666;23.366;2023-07-31T13:36:46;6.72;;;5.30;;
40204;SDS011;26963;42.666;23.366;2023-07-31T13:39:12;6.75;;;4.72;;
40204;SDS011;26963;42.666;23.366;2023-07-31T13:41:37;8.30;;;5.15;;
40204;SDS011;26963;42.666;23.366;2023-07-31T13:44:03;6.30;;;3.97;;
40204;SDS011;26963;42.666;23.366;2023-07-31T13:46:28;4.47;;;3.90;;
40204;SDS011;26963;42.666;23.366;2023-07-31T13:48:58;5.53;;;4.25;;
40204;SDS011;26963;42.666;23.366;2023-07-31T13:51:25;7.03;;;4.63;;
40204;SDS011;26963;42.666;23.366;2023-07-31T13:53:51;6.65;;;4.50;;
40204;SDS011;26963;42.666;23.366;2023-07-31T13:56:16;5.63;;;4.32;;
40204;SDS011;26963;42.666;23.366;2023-07-31T13:58:42;7.32;;;4.60;;
40204;SDS011;26963;42.666;23.366;2023-07-31T14:01:07;6.57;;;4.13;;
40204;SDS011;26963;42.666;23.366;2023-07-31T14:03:34;5.40;;;4.68;;
40204;SDS011;26963;42.666;23.366;2023-07-31T14:05:59;10.07;;;8.75;;
40204;SDS011;26963;42.666;23.366;2023-07-31T14:08:25;7.68;;;5.97;;
40204;SDS011;26963;42.666;23.366;2023-07-31T14:10:50;9.68;;;7.38;;
40204;SDS011;26963;42.666;23.366;2023-07-31T14:13:16;8.23;;;6.68;;
40204;SDS011;26963;42.666;23.366;2023-07-31T14:15:42;7.07;;;6.38;;
40204;SDS011;26963;42.666;23.366;2023-07-31T14:18:08;7.43;;;6.50;;
40204;SDS011;26963;42.666;23.366;2023-07-31T14:20:34;6.00;;;4.72;;
40204;SDS011;26963;42.666;23.366;2023-07-31T14:23:03;13.70;;;12.40;;
40204;SDS011;26963;42.666;23.366;2023-07-31T14:25:31;6.85;;;5.03;;
40204;SDS011;26963;42.666;23.366;2023-07-31T14:27:57;5.25;;;4.75;;
40204;SDS011;26963;42.666;23.366;2023-07-31T14:30:22;7.18;;;4.57;;
40204;SDS011;26963;42.666;23.366;2023-07-31T14:32:48;7.15;;;4.90;;
40204;SDS011;26963;42.666;23.366;2023-07-31T14:35:14;8.10;;;4.80;;